Red Lake Airport
CYRL : now visible

Airfield :











YOU CAN JOIN US ON...

 
LOGIN :

Register | Disclaimer

   EN    FR    IT 

 









Legend :    VFR   Marginal VFR   IFR   Intensive IFR   Very Intensive IFR
Visi :
Ceiling :
>= 8 km
>= 3000ft
5 to 8 km
1000 to 3000 ft
1500m to 5 km
500 to 1000 ft
800 to 1500m
200 to 500 ft
< 800m
< 200 ft
Symbols :   Thunderstorms  Fog  Heavy snow  Heavy precipitations  Wind > 20 kt






- Airport Elevation : 1265 ft
- IATA code : YRL


CYRL - Red Lake

CURRENT METAR :
  • 231400Z 33003KT 15SM -SN OVC022 M02/M07 A2952 RMK SC8 SLP021

EXPIRED METARs :
  • 231300Z 35003KT 12SM -SN OVC022 M03/M07 A2952 RMK SC8 SLP020
  • 231200Z 10003KT 330V100 15SM -SN OVC022 M03/M06 A2953 RMK SC8 SLP022

TAF TAF CYRL
Valid from the 23 at 14:00 until the 24 at 02:00 UTC


231339Z 2314/2402 VRB03KT P6SM -SN OVC025
TEMPO 2314/2318 21/2SM -SN OVC020
FM231800 27008KT 1SM -SN OVC007
TEMPO 2318/2320 3SM -SN OVC010
BECMG 2318/2320 29012G22KT
FM232000 29012G22KT 3/4SM -SN VV007
TEMPO 2320/2402 3SM -SN OVC010 RMK NXT FCST BY 232000Z



MET'MAP, your aeronautical weather chart ! - Copyright ORBIFLY December 2007 - Disclaimer

ORBIFLY MET'MAP TEAM :

Programming & Development : Alexandra Zaïnal
Concept & original design : Baudouin d'Aumeries
Assistance for programming : Marc-Olivier Méhu
Technical & hardware support : Manuel Goepfert

Contact : metmap@orbifly.com




SOURCES & CREDITS :

   NOAA       Earth
Advisory